sensor_id;sensor_type;location;lat;lon;timestamp;P1;durP1;ratioP1;P2;durP2;ratioP2
51272;SDS011;37345;59.828;30.328;2022-09-12T03:00:07;22.25;;;8.07;;
51272;SDS011;37345;59.828;30.328;2022-09-12T03:05:23;82.10;;;26.40;;
51272;SDS011;37345;59.828;30.328;2022-09-12T03:22:59;23.77;;;8.52;;
51272;SDS011;37345;59.828;30.328;2022-09-12T03:25:29;29.33;;;10.23;;
51272;SDS011;37345;59.828;30.328;2022-09-12T03:27:58;34.80;;;12.60;;
51272;SDS011;37345;59.828;30.328;2022-09-12T03:30:25;26.02;;;7.63;;
51272;SDS011;37345;59.828;30.328;2022-09-12T03:32:52;17.20;;;6.13;;
51272;SDS011;37345;59.828;30.328;2022-09-12T03:35:20;16.35;;;6.40;;
51272;SDS011;37345;59.828;30.328;2022-09-12T03:37:47;10.27;;;4.60;;
51272;SDS011;37345;59.828;30.328;2022-09-12T03:40:13;16.40;;;4.73;;
51272;SDS011;37345;59.828;30.328;2022-09-12T03:42:40;11.40;;;4.22;;
51272;SDS011;37345;59.828;30.328;2022-09-12T03:45:06;10.52;;;3.97;;
51272;SDS011;37345;59.828;30.328;2022-09-12T03:47:33;13.15;;;4.10;;
51272;SDS011;37345;59.828;30.328;2022-09-12T03:49:59;9.68;;;3.67;;
51272;SDS011;37345;59.828;30.328;2022-09-12T03:52:25;7.88;;;3.92;;
51272;SDS011;37345;59.828;30.328;2022-09-12T03:54:51;7.68;;;3.42;;
51272;SDS011;37345;59.828;30.328;2022-09-12T03:57:18;9.65;;;3.08;;
51272;SDS011;37345;59.828;30.328;2022-09-12T03:59:44;8.02;;;3.58;;
51272;SDS011;37345;59.828;30.328;2022-09-12T04:02:10;9.38;;;3.92;;
51272;SDS011;37345;59.828;30.328;2022-09-12T04:04:39;10.93;;;3.70;;
51272;SDS011;37345;59.828;30.328;2022-09-12T04:07:06;10.10;;;3.83;;
51272;SDS011;37345;59.828;30.328;2022-09-12T04:09:33;13.90;;;6.93;;
51272;SDS011;37345;59.828;30.328;2022-09-12T04:11:59;12.25;;;5.00;;
51272;SDS011;37345;59.828;30.328;2022-09-12T04:14:25;33.50;;;9.73;;
51272;SDS011;37345;59.828;30.328;2022-09-12T04:16:51;23.23;;;7.30;;
51272;SDS011;37345;59.828;30.328;2022-09-12T04:19:17;26.90;;;9.75;;
51272;SDS011;37345;59.828;30.328;2022-09-12T05:31:47;11.88;;;5.38;;
51272;SDS011;37345;59.828;30.328;2022-09-12T05:34:16;15.67;;;4.57;;
51272;SDS011;37345;59.828;30.328;2022-09-12T05:36:42;17.73;;;4.97;;
51272;SDS011;37345;59.828;30.328;2022-09-12T05:39:09;12.93;;;4.00;;
51272;SDS011;37345;59.828;30.328;2022-09-12T05:41:35;12.13;;;3.67;;
51272;SDS011;37345;59.828;30.328;2022-09-12T05:44:02;11.77;;;4.65;;
51272;SDS011;37345;59.828;30.328;2022-09-12T05:46:39;16.15;;;3.80;;
51272;SDS011;37345;59.828;30.328;2022-09-12T05:49:06;28.40;;;5.68;;
51272;SDS011;37345;59.828;30.328;2022-09-12T05:51:33;11.90;;;3.70;;
51272;SDS011;37345;59.828;30.328;2022-09-12T05:54:00;9.68;;;2.72;;
51272;SDS011;37345;59.828;30.328;2022-09-12T05:56:28;10.90;;;3.00;;
51272;SDS011;37345;59.828;30.328;2022-09-12T05:58:58;14.88;;;3.50;;
51272;SDS011;37345;59.828;30.328;2022-09-12T06:01:26;9.15;;;3.40;;
51272;SDS011;37345;59.828;30.328;2022-09-12T06:03:54;8.70;;;3.10;;
51272;SDS011;37345;59.828;30.328;2022-09-12T06:06:21;8.85;;;2.92;;
51272;SDS011;37345;59.828;30.328;2022-09-12T06:08:48;7.15;;;2.50;;
51272;SDS011;37345;59.828;30.328;2022-09-12T06:11:16;6.63;;;2.47;;
51272;SDS011;37345;59.828;30.328;2022-09-12T06:13:43;5.27;;;2.10;;
51272;SDS011;37345;59.828;30.328;2022-09-12T06:16:11;3.95;;;2.05;;
51272;SDS011;37345;59.828;30.328;2022-09-12T06:18:37;4.82;;;1.77;;
51272;SDS011;37345;59.828;30.328;2022-09-12T06:21:05;4.40;;;1.75;;
51272;SDS011;37345;59.828;30.328;2022-09-12T06:23:31;6.50;;;2.20;;
51272;SDS011;37345;59.828;30.328;2022-09-12T06:25:58;4.82;;;2.10;;
51272;SDS011;37345;59.828;30.328;2022-09-12T06:28:25;4.70;;;1.98;;
51272;SDS011;37345;59.828;30.328;2022-09-12T06:30:51;5.03;;;1.70;;
51272;SDS011;37345;59.828;30.328;2022-09-12T06:33:17;4.07;;;2.15;;
51272;SDS011;37345;59.828;30.328;2022-09-12T06:35:44;3.78;;;1.80;;
51272;SDS011;37345;59.828;30.328;2022-09-12T06:38:10;5.43;;;2.30;;
51272;SDS011;37345;59.828;30.328;2022-09-12T06:40:42;4.05;;;2.15;;
51272;SDS011;37345;59.828;30.328;2022-09-12T06:43:09;7.40;;;2.22;;
51272;SDS011;37345;59.828;30.328;2022-09-12T06:45:36;6.00;;;1.70;;
51272;SDS011;37345;59.828;30.328;2022-09-12T06:48:02;3.03;;;1.60;;
51272;SDS011;37345;59.828;30.328;2022-09-12T06:50:29;2.33;;;1.60;;
51272;SDS011;37345;59.828;30.328;2022-09-12T06:52:55;2.40;;;1.88;;
51272;SDS011;37345;59.828;30.328;2022-09-12T06:55:21;2.73;;;1.80;;
51272;SDS011;37345;59.828;30.328;2022-09-12T06:57:48;4.07;;;2.13;;
51272;SDS011;37345;59.828;30.328;2022-09-12T07:00:16;4.03;;;2.20;;
51272;SDS011;37345;59.828;30.328;2022-09-12T07:02:42;3.63;;;2.33;;
51272;SDS011;37345;59.828;30.328;2022-09-12T07:05:08;4.05;;;2.00;;
51272;SDS011;37345;59.828;30.328;2022-09-12T07:07:35;3.20;;;1.55;;
51272;SDS011;37345;59.828;30.328;2022-09-12T07:10:02;2.40;;;1.80;;
51272;SDS011;37345;59.828;30.328;2022-09-12T07:12:28;2.58;;;1.50;;
51272;SDS011;37345;59.828;30.328;2022-09-12T07:14:54;2.97;;;1.48;;
51272;SDS011;37345;59.828;30.328;2022-09-12T07:17:20;2.95;;;1.60;;
51272;SDS011;37345;59.828;30.328;2022-09-12T07:19:46;5.68;;;1.73;;
51272;SDS011;37345;59.828;30.328;2022-09-12T07:22:13;4.85;;;1.38;;
51272;SDS011;37345;59.828;30.328;2022-09-12T07:24:39;4.00;;;1.43;;
51272;SDS011;37345;59.828;30.328;2022-09-12T07:27:05;2.22;;;1.23;;
51272;SDS011;37345;59.828;30.328;2022-09-12T07:29:32;4.07;;;2.20;;
51272;SDS011;37345;59.828;30.328;2022-09-12T07:31:58;3.42;;;1.23;;
51272;SDS011;37345;59.828;30.328;2022-09-12T07:34:27;6.50;;;1.65;;
51272;SDS011;37345;59.828;30.328;2022-09-12T07:36:53;3.58;;;1.48;;
51272;SDS011;37345;59.828;30.328;2022-09-12T07:39:19;3.38;;;1.10;;
51272;SDS011;37345;59.828;30.328;2022-09-12T07:41:45;3.55;;;1.17;;
51272;SDS011;37345;59.828;30.328;2022-09-12T07:44:11;3.05;;;1.20;;
51272;SDS011;37345;59.828;30.328;2022-09-12T07:46:37;3.72;;;1.38;;
51272;SDS011;37345;59.828;30.328;2022-09-12T07:49:04;2.87;;;1.27;;
51272;SDS011;37345;59.828;30.328;2022-09-12T07:51:30;2.92;;;1.40;;
51272;SDS011;37345;59.828;30.328;2022-09-12T07:53:56;2.67;;;1.15;;
51272;SDS011;37345;59.828;30.328;2022-09-12T07:56:23;3.22;;;1.42;;
51272;SDS011;37345;59.828;30.328;2022-09-12T07:58:49;3.03;;;1.30;;
51272;SDS011;37345;59.828;30.328;2022-09-12T08:03:42;1.95;;;1.48;;
51272;SDS011;37345;59.828;30.328;2022-09-12T08:06:13;2.60;;;1.25;;
51272;SDS011;37345;59.828;30.328;2022-09-12T08:08:39;1.55;;;1.30;;
51272;SDS011;37345;59.828;30.328;2022-09-12T08:11:07;3.37;;;1.40;;
51272;SDS011;37345;59.828;30.328;2022-09-12T08:13:34;1.65;;;1.17;;
51272;SDS011;37345;59.828;30.328;2022-09-12T08:16:11;3.03;;;1.37;;
51272;SDS011;37345;59.828;30.328;2022-09-12T08:18:38;3.30;;;1.00;;
51272;SDS011;37345;59.828;30.328;2022-09-12T08:21:26;2.60;;;1.20;;
51272;SDS011;37345;59.828;30.328;2022-09-12T08:23:51;2.38;;;1.20;;
51272;SDS011;37345;59.828;30.328;2022-09-12T08:26:18;4.10;;;1.77;;
51272;SDS011;37345;59.828;30.328;2022-09-12T08:28:44;5.13;;;1.48;;
51272;SDS011;37345;59.828;30.328;2022-09-12T08:31:14;2.57;;;1.30;;
51272;SDS011;37345;59.828;30.328;2022-09-12T08:33:41;2.30;;;1.20;;
51272;SDS011;37345;59.828;30.328;2022-09-12T08:36:09;2.65;;;1.05;;
51272;SDS011;37345;59.828;30.328;2022-09-12T08:38:36;2.60;;;1.00;;
51272;SDS011;37345;59.828;30.328;2022-09-12T08:44:06;1.90;;;1.30;;
51272;SDS011;37345;59.828;30.328;2022-09-12T08:46:46;3.67;;;1.20;;
51272;SDS011;37345;59.828;30.328;2022-09-12T08:49:20;3.00;;;1.30;;
51272;SDS011;37345;59.828;30.328;2022-09-12T08:51:50;3.25;;;1.98;;
51272;SDS011;37345;59.828;30.328;2022-09-12T08:54:20;2.92;;;1.48;;
51272;SDS011;37345;59.828;30.328;2022-09-12T08:56:48;2.40;;;1.05;;
51272;SDS011;37345;59.828;30.328;2022-09-12T08:59:14;3.53;;;1.02;;
51272;SDS011;37345;59.828;30.328;2022-09-12T09:01:41;2.97;;;1.60;;
51272;SDS011;37345;59.828;30.328;2022-09-12T09:04:15;2.10;;;1.33;;
51272;SDS011;37345;59.828;30.328;2022-09-12T09:11:52;2.08;;;0.77;;
51272;SDS011;37345;59.828;30.328;2022-09-12T09:17:09;2.97;;;1.02;;
51272;SDS011;37345;59.828;30.328;2022-09-12T09:19:38;2.33;;;1.00;;
51272;SDS011;37345;59.828;30.328;2022-09-12T09:22:07;1.98;;;0.90;;
51272;SDS011;37345;59.828;30.328;2022-09-12T09:24:42;1.75;;;1.00;;
51272;SDS011;37345;59.828;30.328;2022-09-12T09:27:14;3.27;;;0.90;;
51272;SDS011;37345;59.828;30.328;2022-09-12T09:29:46;1.55;;;1.10;;
51272;SDS011;37345;59.828;30.328;2022-09-12T09:32:17;3.95;;;1.38;;
51272;SDS011;37345;59.828;30.328;2022-09-12T09:34:43;2.97;;;1.00;;
51272;SDS011;37345;59.828;30.328;2022-09-12T09:37:20;1.27;;;0.87;;
51272;SDS011;37345;59.828;30.328;2022-09-12T09:42:29;1.73;;;1.00;;
51272;SDS011;37345;59.828;30.328;2022-09-12T09:44:57;4.97;;;1.60;;
51272;SDS011;37345;59.828;30.328;2022-09-12T09:47:24;2.10;;;1.23;;
51272;SDS011;37345;59.828;30.328;2022-09-12T09:49:50;1.48;;;1.00;;
51272;SDS011;37345;59.828;30.328;2022-09-12T09:52:19;3.70;;;1.23;;
51272;SDS011;37345;59.828;30.328;2022-09-12T09:54:50;1.90;;;1.15;;
51272;SDS011;37345;59.828;30.328;2022-09-12T10:03:02;7.97;;;1.23;;
51272;SDS011;37345;59.828;30.328;2022-09-12T10:05:29;2.17;;;1.33;;
51272;SDS011;37345;59.828;30.328;2022-09-12T10:07:55;3.38;;;1.25;;
51272;SDS011;37345;59.828;30.328;2022-09-12T10:10:22;4.30;;;1.33;;
51272;SDS011;37345;59.828;30.328;2022-09-12T10:12:49;2.97;;;1.55;;
51272;SDS011;37345;59.828;30.328;2022-09-12T10:15:22;3.20;;;1.40;;
51272;SDS011;37345;59.828;30.328;2022-09-12T10:17:53;4.03;;;1.40;;
51272;SDS011;37345;59.828;30.328;2022-09-12T10:20:39;2.65;;;1.40;;
51272;SDS011;37345;59.828;30.328;2022-09-12T10:25:54;2.15;;;1.10;;
51272;SDS011;37345;59.828;30.328;2022-09-12T10:31:06;7.50;;;1.73;;
51272;SDS011;37345;59.828;30.328;2022-09-12T10:33:36;3.67;;;1.40;;
51272;SDS011;37345;59.828;30.328;2022-09-12T10:36:06;3.83;;;1.30;;
51272;SDS011;37345;59.828;30.328;2022-09-12T10:38:32;4.05;;;1.40;;
51272;SDS011;37345;59.828;30.328;2022-09-12T10:41:05;2.65;;;1.15;;
51272;SDS011;37345;59.828;30.328;2022-09-12T10:45:59;5.88;;;1.40;;
51272;SDS011;37345;59.828;30.328;2022-09-12T10:48:44;3.57;;;1.20;;
51272;SDS011;37345;59.828;30.328;2022-09-12T10:53:53;2.75;;;1.27;;
51272;SDS011;37345;59.828;30.328;2022-09-12T10:56:30;1.83;;;1.30;;
51272;SDS011;37345;59.828;30.328;2022-09-12T11:01:49;6.97;;;1.40;;
51272;SDS011;37345;59.828;30.328;2022-09-12T11:12:19;3.53;;;1.45;;
51272;SDS011;37345;59.828;30.328;2022-09-12T11:25:27;2.40;;;1.40;;
51272;SDS011;37345;59.828;30.328;2022-09-12T11:30:49;1.30;;;0.98;;
51272;SDS011;37345;59.828;30.328;2022-09-12T11:36:03;1.60;;;1.03;;
51272;SDS011;37345;59.828;30.328;2022-09-12T11:41:09;3.53;;;1.30;;
51272;SDS011;37345;59.828;30.328;2022-09-12T11:43:45;1.48;;;1.10;;
51272;SDS011;37345;59.828;30.328;2022-09-12T11:46:33;1.20;;;1.10;;
51272;SDS011;37345;59.828;30.328;2022-09-12T11:49:03;7.53;;;1.40;;
51272;SDS011;37345;59.828;30.328;2022-09-12T11:51:39;2.67;;;1.00;;
51272;SDS011;37345;59.828;30.328;2022-09-12T11:56:40;1.98;;;1.08;;
51272;SDS011;37345;59.828;30.328;2022-09-12T11:59:11;3.10;;;0.80;;
51272;SDS011;37345;59.828;30.328;2022-09-12T12:01:39;1.30;;;1.10;;
51272;SDS011;37345;59.828;30.328;2022-09-12T12:04:09;1.13;;;1.00;;
51272;SDS011;37345;59.828;30.328;2022-09-12T12:06:43;1.77;;;0.88;;
51272;SDS011;37345;59.828;30.328;2022-09-12T12:09:11;1.73;;;1.10;;
51272;SDS011;37345;59.828;30.328;2022-09-12T12:11:41;2.50;;;1.35;;
51272;SDS011;37345;59.828;30.328;2022-09-12T12:14:23;1.92;;;0.95;;
51272;SDS011;37345;59.828;30.328;2022-09-12T12:16:50;0.80;;;0.80;;
51272;SDS011;37345;59.828;30.328;2022-09-12T12:21:46;2.10;;;1.08;;
51272;SDS011;37345;59.828;30.328;2022-09-12T12:24:14;2.83;;;1.00;;
51272;SDS011;37345;59.828;30.328;2022-09-12T12:34:34;2.75;;;1.20;;
51272;SDS011;37345;59.828;30.328;2022-09-12T12:45:03;3.13;;;0.95;;
51272;SDS011;37345;59.828;30.328;2022-09-12T12:47:54;1.85;;;1.23;;
51272;SDS011;37345;59.828;30.328;2022-09-12T12:50:22;2.80;;;1.10;;
51272;SDS011;37345;59.828;30.328;2022-09-12T12:55:23;1.95;;;1.27;;
51272;SDS011;37345;59.828;30.328;2022-09-12T12:57:56;1.63;;;1.02;;
51272;SDS011;37345;59.828;30.328;2022-09-12T13:05:20;3.60;;;1.50;;
51272;SDS011;37345;59.828;30.328;2022-09-12T13:10:47;1.93;;;1.17;;
51272;SDS011;37345;59.828;30.328;2022-09-12T13:13:19;2.50;;;1.25;;
51272;SDS011;37345;59.828;30.328;2022-09-12T13:15:49;8.07;;;1.10;;
51272;SDS011;37345;59.828;30.328;2022-09-12T13:18:20;2.83;;;1.30;;
51272;SDS011;37345;59.828;30.328;2022-09-12T13:20:53;1.50;;;1.10;;
51272;SDS011;37345;59.828;30.328;2022-09-12T13:23:21;4.70;;;1.00;;
51272;SDS011;37345;59.828;30.328;2022-09-12T13:25:57;3.23;;;1.10;;
51272;SDS011;37345;59.828;30.328;2022-09-12T13:28:24;2.50;;;1.20;;
51272;SDS011;37345;59.828;30.328;2022-09-12T13:31:01;3.75;;;1.10;;
51272;SDS011;37345;59.828;30.328;2022-09-12T13:43:53;3.13;;;1.10;;
51272;SDS011;37345;59.828;30.328;2022-09-12T13:46:23;2.17;;;1.35;;
51272;SDS011;37345;59.828;30.328;2022-09-12T13:48:51;5.57;;;1.53;;
51272;SDS011;37345;59.828;30.328;2022-09-12T13:51:20;2.33;;;1.40;;
51272;SDS011;37345;59.828;30.328;2022-09-12T13:53:48;3.85;;;1.20;;
51272;SDS011;37345;59.828;30.328;2022-09-12T13:56:18;1.45;;;1.10;;
51272;SDS011;37345;59.828;30.328;2022-09-12T14:01:18;3.20;;;1.10;;
51272;SDS011;37345;59.828;30.328;2022-09-12T14:06:37;2.65;;;1.45;;
51272;SDS011;37345;59.828;30.328;2022-09-12T14:09:12;3.40;;;1.40;;
51272;SDS011;37345;59.828;30.328;2022-09-12T14:11:38;3.28;;;1.45;;
51272;SDS011;37345;59.828;30.328;2022-09-12T14:14:05;2.78;;;1.80;;
51272;SDS011;37345;59.828;30.328;2022-09-12T14:16:34;4.80;;;1.27;;
51272;SDS011;37345;59.828;30.328;2022-09-12T14:19:03;3.70;;;1.42;;
51272;SDS011;37345;59.828;30.328;2022-09-12T14:21:33;7.15;;;1.83;;
51272;SDS011;37345;59.828;30.328;2022-09-12T14:24:00;4.47;;;1.65;;
51272;SDS011;37345;59.828;30.328;2022-09-12T14:26:28;4.20;;;1.90;;
51272;SDS011;37345;59.828;30.328;2022-09-12T14:28:57;2.80;;;1.40;;
51272;SDS011;37345;59.828;30.328;2022-09-12T14:31:34;4.50;;;1.50;;
51272;SDS011;37345;59.828;30.328;2022-09-12T14:34:18;7.05;;;1.80;;
51272;SDS011;37345;59.828;30.328;2022-09-12T14:39:18;2.58;;;1.45;;
51272;SDS011;37345;59.828;30.328;2022-09-12T14:41:46;5.57;;;1.83;;
51272;SDS011;37345;59.828;30.328;2022-09-12T14:44:15;3.55;;;1.42;;
51272;SDS011;37345;59.828;30.328;2022-09-12T14:46:43;3.15;;;1.40;;
51272;SDS011;37345;59.828;30.328;2022-09-12T14:51:39;3.85;;;1.77;;
51272;SDS011;37345;59.828;30.328;2022-09-12T14:56:56;6.85;;;1.77;;
51272;SDS011;37345;59.828;30.328;2022-09-12T14:59:27;3.58;;;1.80;;
51272;SDS011;37345;59.828;30.328;2022-09-12T15:04:39;3.23;;;2.00;;
51272;SDS011;37345;59.828;30.328;2022-09-12T15:09:50;3.03;;;1.30;;
51272;SDS011;37345;59.828;30.328;2022-09-12T15:12:17;6.70;;;1.60;;
51272;SDS011;37345;59.828;30.328;2022-09-12T15:14:43;8.30;;;2.20;;
51272;SDS011;37345;59.828;30.328;2022-09-12T15:17:09;3.73;;;1.63;;
51272;SDS011;37345;59.828;30.328;2022-09-12T15:19:35;3.95;;;1.70;;
51272;SDS011;37345;59.828;30.328;2022-09-12T15:22:01;5.25;;;1.63;;
51272;SDS011;37345;59.828;30.328;2022-09-12T15:24:27;3.15;;;1.85;;
51272;SDS011;37345;59.828;30.328;2022-09-12T15:26:53;4.00;;;2.00;;
51272;SDS011;37345;59.828;30.328;2022-09-12T15:29:23;4.63;;;1.80;;
51272;SDS011;37345;59.828;30.328;2022-09-12T15:31:49;3.80;;;1.90;;
51272;SDS011;37345;59.828;30.328;2022-09-12T15:34:15;5.03;;;2.60;;
51272;SDS011;37345;59.828;30.328;2022-09-12T15:36:41;5.75;;;2.08;;
51272;SDS011;37345;59.828;30.328;2022-09-12T15:39:08;2.33;;;1.67;;
51272;SDS011;37345;59.828;30.328;2022-09-12T15:41:36;5.50;;;2.22;;
51272;SDS011;37345;59.828;30.328;2022-09-12T15:44:06;5.05;;;1.77;;
51272;SDS011;37345;59.828;30.328;2022-09-12T15:46:34;7.18;;;2.10;;
51272;SDS011;37345;59.828;30.328;2022-09-12T15:49:01;7.10;;;2.10;;
51272;SDS011;37345;59.828;30.328;2022-09-12T15:51:27;4.60;;;2.13;;
51272;SDS011;37345;59.828;30.328;2022-09-12T15:53:53;6.07;;;1.98;;
51272;SDS011;37345;59.828;30.328;2022-09-12T15:56:20;4.88;;;2.35;;
51272;SDS011;37345;59.828;30.328;2022-09-12T15:58:47;4.88;;;2.63;;
51272;SDS011;37345;59.828;30.328;2022-09-12T16:01:14;4.32;;;1.80;;
51272;SDS011;37345;59.828;30.328;2022-09-12T16:03:40;2.00;;;1.40;;
51272;SDS011;37345;59.828;30.328;2022-09-12T16:06:06;4.22;;;1.48;;
51272;SDS011;37345;59.828;30.328;2022-09-12T16:08:35;3.88;;;1.52;;
51272;SDS011;37345;59.828;30.328;2022-09-12T16:11:02;4.18;;;1.65;;
51272;SDS011;37345;59.828;30.328;2022-09-12T16:13:28;4.03;;;1.25;;
51272;SDS011;37345;59.828;30.328;2022-09-12T16:15:55;4.35;;;1.73;;
51272;SDS011;37345;59.828;30.328;2022-09-12T16:18:22;2.50;;;1.33;;
51272;SDS011;37345;59.828;30.328;2022-09-12T16:20:54;3.27;;;1.33;;
51272;SDS011;37345;59.828;30.328;2022-09-12T16:23:20;5.45;;;1.38;;
51272;SDS011;37345;59.828;30.328;2022-09-12T16:26:05;2.53;;;1.50;;
51272;SDS011;37345;59.828;30.328;2022-09-12T16:28:31;4.05;;;1.40;;
51272;SDS011;37345;59.828;30.328;2022-09-12T16:30:58;3.70;;;1.50;;
51272;SDS011;37345;59.828;30.328;2022-09-12T16:33:25;2.47;;;1.50;;
51272;SDS011;37345;59.828;30.328;2022-09-12T16:35:51;4.10;;;1.47;;
51272;SDS011;37345;59.828;30.328;2022-09-12T16:38:21;3.55;;;1.70;;
51272;SDS011;37345;59.828;30.328;2022-09-12T16:40:48;3.28;;;1.48;;
51272;SDS011;37345;59.828;30.328;2022-09-12T16:43:14;5.47;;;1.88;;
51272;SDS011;37345;59.828;30.328;2022-09-12T16:45:42;3.40;;;1.60;;
51272;SDS011;37345;59.828;30.328;2022-09-12T16:48:08;4.43;;;1.60;;
51272;SDS011;37345;59.828;30.328;2022-09-12T16:50:34;5.53;;;1.80;;
51272;SDS011;37345;59.828;30.328;2022-09-12T16:53:00;5.78;;;1.60;;
51272;SDS011;37345;59.828;30.328;2022-09-12T16:55:26;3.30;;;1.80;;
51272;SDS011;37345;59.828;30.328;2022-09-12T16:57:56;3.22;;;1.65;;
51272;SDS011;37345;59.828;30.328;2022-09-12T17:00:22;6.03;;;1.70;;
51272;SDS011;37345;59.828;30.328;2022-09-12T17:02:50;7.10;;;1.70;;
51272;SDS011;37345;59.828;30.328;2022-09-12T17:05:16;2.42;;;1.50;;
51272;SDS011;37345;59.828;30.328;2022-09-12T17:07:42;2.38;;;1.75;;
51272;SDS011;37345;59.828;30.328;2022-09-12T17:10:09;4.47;;;1.65;;
51272;SDS011;37345;59.828;30.328;2022-09-12T17:12:37;3.70;;;1.80;;
51272;SDS011;37345;59.828;30.328;2022-09-12T17:15:04;3.72;;;1.60;;
51272;SDS011;37345;59.828;30.328;2022-09-12T17:17:30;3.08;;;1.70;;
51272;SDS011;37345;59.828;30.328;2022-09-12T17:19:56;2.50;;;1.67;;
51272;SDS011;37345;59.828;30.328;2022-09-12T17:22:22;3.08;;;1.60;;
51272;SDS011;37345;59.828;30.328;2022-09-12T17:24:48;2.90;;;1.77;;
51272;SDS011;37345;59.828;30.328;2022-09-12T17:27:14;2.97;;;1.80;;
51272;SDS011;37345;59.828;30.328;2022-09-12T17:29:40;4.07;;;1.55;;
51272;SDS011;37345;59.828;30.328;2022-09-12T17:32:06;2.55;;;1.67;;
51272;SDS011;37345;59.828;30.328;2022-09-12T17:34:33;4.65;;;1.88;;
51272;SDS011;37345;59.828;30.328;2022-09-12T17:36:59;3.33;;;1.48;;
51272;SDS011;37345;59.828;30.328;2022-09-12T17:39:25;2.97;;;1.50;;
51272;SDS011;37345;59.828;30.328;2022-09-12T17:41:51;2.22;;;1.50;;
51272;SDS011;37345;59.828;30.328;2022-09-12T17:44:21;2.30;;;1.55;;
51272;SDS011;37345;59.828;30.328;2022-09-12T17:46:48;2.72;;;1.50;;
51272;SDS011;37345;59.828;30.328;2022-09-12T17:49:15;2.20;;;1.58;;
51272;SDS011;37345;59.828;30.328;2022-09-12T17:51:42;3.20;;;1.50;;
51272;SDS011;37345;59.828;30.328;2022-09-12T17:54:10;4.28;;;1.60;;
51272;SDS011;37345;59.828;30.328;2022-09-12T17:56:37;3.50;;;2.70;;
51272;SDS011;37345;59.828;30.328;2022-09-12T17:59:04;3.78;;;1.70;;
51272;SDS011;37345;59.828;30.328;2022-09-12T18:01:30;7.55;;;2.05;;
51272;SDS011;37345;59.828;30.328;2022-09-12T18:04:15;4.93;;;1.65;;
51272;SDS011;37345;59.828;30.328;2022-09-12T18:06:41;2.17;;;1.70;;
51272;SDS011;37345;59.828;30.328;2022-09-12T18:09:11;5.75;;;2.10;;
51272;SDS011;37345;59.828;30.328;2022-09-12T18:11:40;4.28;;;1.63;;
51272;SDS011;37345;59.828;30.328;2022-09-12T18:14:07;3.53;;;2.25;;
51272;SDS011;37345;59.828;30.328;2022-09-12T18:16:33;2.85;;;1.90;;
51272;SDS011;37345;59.828;30.328;2022-09-12T18:19:00;3.92;;;1.80;;
51272;SDS011;37345;59.828;30.328;2022-09-12T18:21:26;3.73;;;2.00;;
51272;SDS011;37345;59.828;30.328;2022-09-12T18:23:54;4.00;;;2.03;;
51272;SDS011;37345;59.828;30.328;2022-09-12T18:26:20;3.72;;;2.03;;
51272;SDS011;37345;59.828;30.328;2022-09-12T18:28:46;3.58;;;2.10;;
51272;SDS011;37345;59.828;30.328;2022-09-12T18:31:14;4.00;;;1.97;;
51272;SDS011;37345;59.828;30.328;2022-09-12T18:33:40;3.95;;;1.90;;
51272;SDS011;37345;59.828;30.328;2022-09-12T18:36:07;6.18;;;1.80;;
51272;SDS011;37345;59.828;30.328;2022-09-12T18:38:34;3.50;;;2.00;;
51272;SDS011;37345;59.828;30.328;2022-09-12T18:41:07;4.75;;;2.00;;
51272;SDS011;37345;59.828;30.328;2022-09-12T18:43:33;4.28;;;2.47;;
51272;SDS011;37345;59.828;30.328;2022-09-12T18:46:06;3.53;;;2.10;;
51272;SDS011;37345;59.828;30.328;2022-09-12T18:48:33;2.97;;;1.87;;
51272;SDS011;37345;59.828;30.328;2022-09-12T18:51:00;2.83;;;1.98;;
51272;SDS011;37345;59.828;30.328;2022-09-12T18:53:27;4.85;;;2.33;;
51272;SDS011;37345;59.828;30.328;2022-09-12T18:55:58;8.13;;;2.60;;
51272;SDS011;37345;59.828;30.328;2022-09-12T18:58:24;4.85;;;2.22;;
51272;SDS011;37345;59.828;30.328;2022-09-12T19:00:50;2.60;;;2.13;;
51272;SDS011;37345;59.828;30.328;2022-09-12T19:03:17;4.50;;;2.38;;
51272;SDS011;37345;59.828;30.328;2022-09-12T19:05:43;5.47;;;2.17;;
51272;SDS011;37345;59.828;30.328;2022-09-12T19:08:09;5.40;;;2.35;;
51272;SDS011;37345;59.828;30.328;2022-09-12T19:10:35;4.00;;;2.17;;
51272;SDS011;37345;59.828;30.328;2022-09-12T19:13:01;4.57;;;2.08;;
51272;SDS011;37345;59.828;30.328;2022-09-12T19:15:28;3.20;;;2.10;;
51272;SDS011;37345;59.828;30.328;2022-09-12T19:17:54;2.97;;;2.40;;
51272;SDS011;37345;59.828;30.328;2022-09-12T19:20:22;4.07;;;2.20;;
51272;SDS011;37345;59.828;30.328;2022-09-12T19:22:48;4.43;;;2.40;;
51272;SDS011;37345;59.828;30.328;2022-09-12T19:25:15;5.40;;;2.40;;
51272;SDS011;37345;59.828;30.328;2022-09-12T19:27:41;5.65;;;2.65;;
51272;SDS011;37345;59.828;30.328;2022-09-12T19:30:07;6.00;;;2.70;;
51272;SDS011;37345;59.828;30.328;2022-09-12T19:32:33;6.63;;;2.50;;
51272;SDS011;37345;59.828;30.328;2022-09-12T19:35:00;5.25;;;2.40;;
51272;SDS011;37345;59.828;30.328;2022-09-12T19:37:27;6.03;;;2.55;;
51272;SDS011;37345;59.828;30.328;2022-09-12T19:39:54;4.78;;;2.63;;
51272;SDS011;37345;59.828;30.328;2022-09-12T19:42:20;7.57;;;5.22;;
51272;SDS011;37345;59.828;30.328;2022-09-12T19:44:46;4.57;;;2.72;;
51272;SDS011;37345;59.828;30.328;2022-09-12T19:47:17;4.55;;;3.00;;
51272;SDS011;37345;59.828;30.328;2022-09-12T19:49:43;8.10;;;2.80;;
51272;SDS011;37345;59.828;30.328;2022-09-12T19:52:09;5.88;;;3.00;;
51272;SDS011;37345;59.828;30.328;2022-09-12T19:54:35;5.20;;;3.03;;
51272;SDS011;37345;59.828;30.328;2022-09-12T19:57:01;8.68;;;3.50;;
51272;SDS011;37345;59.828;30.328;2022-09-12T19:59:27;5.70;;;2.83;;
51272;SDS011;37345;59.828;30.328;2022-09-12T20:01:53;6.67;;;3.37;;
51272;SDS011;37345;59.828;30.328;2022-09-12T20:04:19;4.57;;;2.95;;
51272;SDS011;37345;59.828;30.328;2022-09-12T20:06:45;5.82;;;3.13;;
51272;SDS011;37345;59.828;30.328;2022-09-12T20:09:11;7.40;;;3.20;;
51272;SDS011;37345;59.828;30.328;2022-09-12T20:11:38;9.00;;;3.20;;
51272;SDS011;37345;59.828;30.328;2022-09-12T20:14:04;5.70;;;3.17;;
51272;SDS011;37345;59.828;30.328;2022-09-12T20:16:30;6.10;;;3.22;;
51272;SDS011;37345;59.828;30.328;2022-09-12T20:18:58;5.30;;;3.47;;
51272;SDS011;37345;59.828;30.328;2022-09-12T20:21:25;5.90;;;3.23;;
51272;SDS011;37345;59.828;30.328;2022-09-12T20:24:00;5.68;;;3.20;;
51272;SDS011;37345;59.828;30.328;2022-09-12T20:26:27;7.82;;;3.60;;
51272;SDS011;37345;59.828;30.328;2022-09-12T20:28:53;6.07;;;3.17;;
51272;SDS011;37345;59.828;30.328;2022-09-12T20:31:19;8.40;;;3.70;;
51272;SDS011;37345;59.828;30.328;2022-09-12T20:33:48;8.70;;;3.70;;
51272;SDS011;37345;59.828;30.328;2022-09-12T20:36:15;7.28;;;4.03;;
51272;SDS011;37345;59.828;30.328;2022-09-12T20:38:45;6.80;;;3.53;;
51272;SDS011;37345;59.828;30.328;2022-09-12T20:41:12;8.60;;;4.00;;
51272;SDS011;37345;59.828;30.328;2022-09-12T20:43:38;5.57;;;3.60;;
51272;SDS011;37345;59.828;30.328;2022-09-12T20:46:05;7.00;;;3.88;;
51272;SDS011;37345;59.828;30.328;2022-09-12T20:48:31;7.63;;;3.97;;
51272;SDS011;37345;59.828;30.328;2022-09-12T20:50:58;7.13;;;3.85;;
51272;SDS011;37345;59.828;30.328;2022-09-12T20:53:24;4.63;;;3.10;;
51272;SDS011;37345;59.828;30.328;2022-09-12T20:55:51;6.03;;;3.13;;
51272;SDS011;37345;59.828;30.328;2022-09-12T20:58:17;5.70;;;3.38;;
51272;SDS011;37345;59.828;30.328;2022-09-12T21:00:44;7.07;;;3.77;;
51272;SDS011;37345;59.828;30.328;2022-09-12T21:03:10;8.70;;;3.78;;
51272;SDS011;37345;59.828;30.328;2022-09-12T21:05:36;7.40;;;3.50;;
51272;SDS011;37345;59.828;30.328;2022-09-12T21:08:02;9.38;;;3.78;;